sensor_id;sensor_type;location;lat;lon;timestamp;pressure;altitude;pressure_sealevel;temperature;humidity
49943;BME280;36011;53.362;58.948;2022-12-10T00:01:39;98770.03;;;-10.45;33.64
49943;BME280;36011;53.362;58.948;2022-12-10T00:04:41;98767.34;;;-10.48;33.71
49943;BME280;36011;53.362;58.948;2022-12-10T00:07:44;98772.09;;;-10.37;34.10
49943;BME280;36011;53.362;58.948;2022-12-10T00:10:48;98762.25;;;-10.48;34.03
49943;BME280;36011;53.362;58.948;2022-12-10T00:13:50;98771.50;;;-10.50;34.60
49943;BME280;36011;53.362;58.948;2022-12-10T00:16:59;98768.72;;;-10.72;34.55
49943;BME280;36011;53.362;58.948;2022-12-10T00:20:03;98776.84;;;-10.79;34.94
49943;BME280;36011;53.362;58.948;2022-12-10T00:23:09;98777.97;;;-10.91;35.40
49943;BME280;36011;53.362;58.948;2022-12-10T00:26:17;98788.66;;;-10.98;35.80
49943;BME280;36011;53.362;58.948;2022-12-10T00:29:19;98781.88;;;-10.63;35.10
49943;BME280;36011;53.362;58.948;2022-12-10T00:32:22;98781.22;;;-10.77;35.27
49943;BME280;36011;53.362;58.948;2022-12-10T00:35:26;98779.41;;;-10.96;35.91
49943;BME280;36011;53.362;58.948;2022-12-10T00:38:30;98778.50;;;-11.31;36.82
49943;BME280;36011;53.362;58.948;2022-12-10T00:41:34;98772.00;;;-11.25;36.71
49943;BME280;36011;53.362;58.948;2022-12-10T00:44:40;98768.50;;;-11.27;36.87
49943;BME280;36011;53.362;58.948;2022-12-10T00:47:43;98778.56;;;-11.13;36.54
49943;BME280;36011;53.362;58.948;2022-12-10T00:50:54;98765.78;;;-10.98;36.18
49943;BME280;36011;53.362;58.948;2022-12-10T00:53:56;98762.25;;;-10.83;36.23
49943;BME280;36011;53.362;58.948;2022-12-10T00:57:01;98758.59;;;-10.89;36.70
49943;BME280;36011;53.362;58.948;2022-12-10T01:00:05;98755.28;;;-11.04;36.90
49943;BME280;36011;53.362;58.948;2022-12-10T01:03:07;98764.53;;;-11.22;37.78
49943;BME280;36011;53.362;58.948;2022-12-10T01:06:17;98762.81;;;-11.56;37.76
49943;BME280;36011;53.362;58.948;2022-12-10T01:09:23;98757.72;;;-11.72;38.26
49943;BME280;36011;53.362;58.948;2022-12-10T01:12:33;98755.63;;;-11.63;38.45
49943;BME280;36011;53.362;58.948;2022-12-10T01:15:38;98760.91;;;-11.60;38.61
49943;BME280;36011;53.362;58.948;2022-12-10T01:18:46;98752.31;;;-11.62;38.36
49943;BME280;36011;53.362;58.948;2022-12-10T01:21:53;98761.38;;;-11.51;38.30
49943;BME280;36011;53.362;58.948;2022-12-10T01:24:56;98760.50;;;-11.51;38.29
49943;BME280;36011;53.362;58.948;2022-12-10T01:27:57;98757.22;;;-11.33;38.33
49943;BME280;36011;53.362;58.948;2022-12-10T01:31:07;98748.44;;;-11.39;38.60
49943;BME280;36011;53.362;58.948;2022-12-10T01:34:13;98756.50;;;-11.30;38.95
49943;BME280;36011;53.362;58.948;2022-12-10T01:37:16;98748.34;;;-11.41;38.68
49943;BME280;36011;53.362;58.948;2022-12-10T01:40:17;98740.91;;;-11.54;39.04
49943;BME280;36011;53.362;58.948;2022-12-10T01:43:21;98743.91;;;-11.45;38.97
49943;BME280;36011;53.362;58.948;2022-12-10T01:46:29;98743.91;;;-11.61;39.11
49943;BME280;36011;53.362;58.948;2022-12-10T01:49:36;98750.19;;;-11.55;39.09
49943;BME280;36011;53.362;58.948;2022-12-10T01:52:40;98736.75;;;-11.52;39.25
49943;BME280;36011;53.362;58.948;2022-12-10T01:55:48;98740.41;;;-11.31;38.51
49943;BME280;36011;53.362;58.948;2022-12-10T01:58:54;98731.94;;;-11.13;38.14
49943;BME280;36011;53.362;58.948;2022-12-10T02:11:31;98748.97;;;-10.42;35.86
49943;BME280;36011;53.362;58.948;2022-12-10T02:15:16;98739.38;;;-10.30;35.62
49943;BME280;36011;53.362;58.948;2022-12-10T02:18:50;98754.28;;;-10.37;35.64
49943;BME280;36011;53.362;58.948;2022-12-10T02:21:55;98740.59;;;-10.40;35.47
49943;BME280;36011;53.362;58.948;2022-12-10T02:24:58;98757.06;;;-10.13;35.09
49943;BME280;36011;53.362;58.948;2022-12-10T02:31:21;98750.28;;;-10.32;35.33
49943;BME280;36011;53.362;58.948;2022-12-10T02:34:27;98755.56;;;-10.28;35.68
49943;BME280;36011;53.362;58.948;2022-12-10T02:37:35;98758.44;;;-10.20;35.08
49943;BME280;36011;53.362;58.948;2022-12-10T02:40:38;98757.50;;;-10.22;35.32
49943;BME280;36011;53.362;58.948;2022-12-10T02:43:51;98742.38;;;-10.19;35.12
49943;BME280;36011;53.362;58.948;2022-12-10T02:46:59;98752.72;;;-10.16;35.41
49943;BME280;36011;53.362;58.948;2022-12-10T02:50:06;98744.72;;;-10.24;35.55
49943;BME280;36011;53.362;58.948;2022-12-10T02:53:16;98751.88;;;-10.34;35.71
49943;BME280;36011;53.362;58.948;2022-12-10T02:56:33;98759.28;;;-10.57;36.32
49943;BME280;36011;53.362;58.948;2022-12-10T03:00:01;98759.84;;;-10.80;36.63
49943;BME280;36011;53.362;58.948;2022-12-10T03:06:22;98766.28;;;-10.53;36.63
49943;BME280;36011;53.362;58.948;2022-12-10T03:09:39;98769.13;;;-10.47;35.99
49943;BME280;36011;53.362;58.948;2022-12-10T03:12:50;98768.13;;;-10.13;35.28
49943;BME280;36011;53.362;58.948;2022-12-10T03:15:55;98763.19;;;-10.10;35.01
49943;BME280;36011;53.362;58.948;2022-12-10T03:19:07;98757.13;;;-10.12;35.14
49943;BME280;36011;53.362;58.948;2022-12-10T03:22:19;98766.69;;;-9.88;34.86
49943;BME280;36011;53.362;58.948;2022-12-10T03:25:25;98762.41;;;-9.89;34.75
49943;BME280;36011;53.362;58.948;2022-12-10T03:28:33;98764.41;;;-9.82;34.71
49943;BME280;36011;53.362;58.948;2022-12-10T03:31:37;98770.31;;;-9.83;34.22
49943;BME280;36011;53.362;58.948;2022-12-10T03:34:45;98769.09;;;-9.91;34.45
49943;BME280;36011;53.362;58.948;2022-12-10T03:37:47;98776.34;;;-10.19;35.13
49943;BME280;36011;53.362;58.948;2022-12-10T03:40:53;98772.28;;;-10.15;35.07
49943;BME280;36011;53.362;58.948;2022-12-10T03:44:01;98776.84;;;-10.26;35.22
49943;BME280;36011;53.362;58.948;2022-12-10T03:47:07;98761.91;;;-10.37;35.47
49943;BME280;36011;53.362;58.948;2022-12-10T03:50:15;98769.44;;;-10.21;35.11
49943;BME280;36011;53.362;58.948;2022-12-10T03:53:19;98789.66;;;-10.42;35.88
49943;BME280;36011;53.362;58.948;2022-12-10T03:56:24;98793.50;;;-10.50;35.92
49943;BME280;36011;53.362;58.948;2022-12-10T03:59:25;98783.75;;;-10.59;36.08
49943;BME280;36011;53.362;58.948;2022-12-10T04:02:29;98789.66;;;-10.42;35.60
49943;BME280;36011;53.362;58.948;2022-12-10T04:05:33;98778.00;;;-10.19;34.72
49943;BME280;36011;53.362;58.948;2022-12-10T04:08:37;98787.78;;;-10.28;34.94
49943;BME280;36011;53.362;58.948;2022-12-10T04:11:41;98798.97;;;-10.07;34.46
49943;BME280;36011;53.362;58.948;2022-12-10T04:14:45;98800.31;;;-9.78;33.96
49943;BME280;36011;53.362;58.948;2022-12-10T04:18:10;98794.25;;;-9.80;33.81
49943;BME280;36011;53.362;58.948;2022-12-10T04:21:19;98805.47;;;-9.76;33.95
49943;BME280;36011;53.362;58.948;2022-12-10T04:24:39;98812.03;;;-9.81;34.14
49943;BME280;36011;53.362;58.948;2022-12-10T04:31:46;98818.72;;;-9.83;34.11
49943;BME280;36011;53.362;58.948;2022-12-10T04:34:51;98820.94;;;-9.54;34.43
49943;BME280;36011;53.362;58.948;2022-12-10T04:37:55;98832.78;;;-9.54;34.24
49943;BME280;36011;53.362;58.948;2022-12-10T04:40:56;98834.66;;;-9.69;34.51
49943;BME280;36011;53.362;58.948;2022-12-10T04:44:00;98820.75;;;-9.76;34.77
49943;BME280;36011;53.362;58.948;2022-12-10T04:47:03;98827.03;;;-9.87;34.76
49943;BME280;36011;53.362;58.948;2022-12-10T04:50:07;98831.16;;;-10.25;35.56
49943;BME280;36011;53.362;58.948;2022-12-10T04:53:12;98832.72;;;-10.29;36.06
49943;BME280;36011;53.362;58.948;2022-12-10T04:56:16;98813.38;;;-10.61;36.01
49943;BME280;36011;53.362;58.948;2022-12-10T04:59:23;98818.75;;;-10.55;36.58
49943;BME280;36011;53.362;58.948;2022-12-10T05:02:24;98816.13;;;-10.56;36.08
49943;BME280;36011;53.362;58.948;2022-12-10T05:05:28;98817.97;;;-10.70;36.91
49943;BME280;36011;53.362;58.948;2022-12-10T05:08:33;98824.19;;;-10.81;36.86
49943;BME280;36011;53.362;58.948;2022-12-10T05:11:39;98823.53;;;-10.61;36.95
49943;BME280;36011;53.362;58.948;2022-12-10T05:14:41;98824.00;;;-10.16;36.03
49943;BME280;36011;53.362;58.948;2022-12-10T05:17:44;98820.13;;;-10.08;35.82
49943;BME280;36011;53.362;58.948;2022-12-10T05:20:48;98819.44;;;-9.68;35.08
49943;BME280;36011;53.362;58.948;2022-12-10T05:23:52;98822.31;;;-9.42;34.67
49943;BME280;36011;53.362;58.948;2022-12-10T05:26:53;98820.69;;;-9.01;34.15
49943;BME280;36011;53.362;58.948;2022-12-10T05:29:57;98815.00;;;-8.75;34.10
49943;BME280;36011;53.362;58.948;2022-12-10T05:33:04;98808.03;;;-8.37;33.64
49943;BME280;36011;53.362;58.948;2022-12-10T05:36:10;98811.72;;;-8.09;32.53
49943;BME280;36011;53.362;58.948;2022-12-10T05:39:15;98794.97;;;-8.01;33.18
49943;BME280;36011;53.362;58.948;2022-12-10T05:42:19;98791.25;;;-7.87;32.45
49943;BME280;36011;53.362;58.948;2022-12-10T05:45:25;98800.47;;;-7.70;32.09
49943;BME280;36011;53.362;58.948;2022-12-10T05:48:31;98791.75;;;-7.52;31.97
49943;BME280;36011;53.362;58.948;2022-12-10T05:51:37;98787.91;;;-7.41;32.05
49943;BME280;36011;53.362;58.948;2022-12-10T05:54:41;98789.28;;;-7.27;32.06
49943;BME280;36011;53.362;58.948;2022-12-10T05:57:45;98786.03;;;-6.97;31.32
49943;BME280;36011;53.362;58.948;2022-12-10T06:00:49;98788.50;;;-6.76;31.79
49943;BME280;36011;53.362;58.948;2022-12-10T06:03:59;98789.94;;;-6.83;31.94
49943;BME280;36011;53.362;58.948;2022-12-10T06:07:02;98806.75;;;-6.65;31.18
49943;BME280;36011;53.362;58.948;2022-12-10T06:10:09;98809.94;;;-6.47;30.69
49943;BME280;36011;53.362;58.948;2022-12-10T06:13:15;98798.16;;;-6.42;31.23
49943;BME280;36011;53.362;58.948;2022-12-10T06:16:17;98796.63;;;-6.37;30.43
49943;BME280;36011;53.362;58.948;2022-12-10T06:19:20;98803.38;;;-6.39;30.05
49943;BME280;36011;53.362;58.948;2022-12-10T06:22:25;98811.44;;;-6.28;30.12
49943;BME280;36011;53.362;58.948;2022-12-10T06:25:28;98798.94;;;-6.17;29.93
49943;BME280;36011;53.362;58.948;2022-12-10T06:28:30;98789.28;;;-5.99;29.71
49943;BME280;36011;53.362;58.948;2022-12-10T06:31:34;98779.38;;;-5.87;29.66
49943;BME280;36011;53.362;58.948;2022-12-10T06:34:38;98789.44;;;-5.93;29.68
49943;BME280;36011;53.362;58.948;2022-12-10T06:37:45;98798.22;;;-5.84;29.32
49943;BME280;36011;53.362;58.948;2022-12-10T06:40:51;98784.69;;;-5.80;28.83
49943;BME280;36011;53.362;58.948;2022-12-10T06:43:53;98792.94;;;-5.91;28.68
49943;BME280;36011;53.362;58.948;2022-12-10T06:47:03;98805.72;;;-6.19;29.25
49943;BME280;36011;53.362;58.948;2022-12-10T06:50:08;98789.69;;;-6.14;29.29
49943;BME280;36011;53.362;58.948;2022-12-10T06:53:10;98788.41;;;-6.26;29.00
49943;BME280;36011;53.362;58.948;2022-12-10T06:56:14;98779.03;;;-6.26;28.64
49943;BME280;36011;53.362;58.948;2022-12-10T06:59:24;98774.19;;;-6.44;29.04
49943;BME280;36011;53.362;58.948;2022-12-10T07:02:27;98777.78;;;-6.39;29.46
49943;BME280;36011;53.362;58.948;2022-12-10T07:05:31;98778.91;;;-6.56;30.50
49943;BME280;36011;53.362;58.948;2022-12-10T07:08:36;98785.47;;;-6.64;30.13
49943;BME280;36011;53.362;58.948;2022-12-10T07:11:40;98788.38;;;-6.53;30.76
49943;BME280;36011;53.362;58.948;2022-12-10T07:14:41;98781.13;;;-5.27;28.86
49943;BME280;36011;53.362;58.948;2022-12-10T07:17:42;98791.22;;;-3.24;25.97
49943;BME280;36011;53.362;58.948;2022-12-10T07:20:48;98781.50;;;-1.95;24.99
49943;BME280;36011;53.362;58.948;2022-12-10T07:23:56;98775.38;;;-0.71;24.33
49943;BME280;36011;53.362;58.948;2022-12-10T07:26:59;98787.22;;;0.02;22.55
49943;BME280;36011;53.362;58.948;2022-12-10T07:30:03;98772.91;;;0.56;22.06
49943;BME280;36011;53.362;58.948;2022-12-10T07:33:07;98765.50;;;1.74;20.79
49943;BME280;36011;53.362;58.948;2022-12-10T07:36:12;98785.91;;;3.37;19.95
49943;BME280;36011;53.362;58.948;2022-12-10T07:39:17;98783.88;;;3.85;19.07
49943;BME280;36011;53.362;58.948;2022-12-10T07:42:23;98785.31;;;4.20;18.82
49943;BME280;36011;53.362;58.948;2022-12-10T07:45:28;98788.09;;;3.98;18.37
49943;BME280;36011;53.362;58.948;2022-12-10T07:48:30;98785.34;;;4.17;18.06
49943;BME280;36011;53.362;58.948;2022-12-10T07:51:31;98809.00;;;4.83;17.80
49943;BME280;36011;53.362;58.948;2022-12-10T07:54:35;98799.78;;;5.92;16.82
49943;BME280;36011;53.362;58.948;2022-12-10T07:57:39;98796.31;;;5.90;16.44
49943;BME280;36011;53.362;58.948;2022-12-10T08:00:46;98801.09;;;6.21;16.21
49943;BME280;36011;53.362;58.948;2022-12-10T08:03:51;98790.28;;;6.89;15.91
49943;BME280;36011;53.362;58.948;2022-12-10T08:06:56;98790.47;;;6.80;16.34
49943;BME280;36011;53.362;58.948;2022-12-10T08:10:00;98801.63;;;8.46;15.57
49943;BME280;36011;53.362;58.948;2022-12-10T08:13:05;98796.13;;;8.88;14.85
49943;BME280;36011;53.362;58.948;2022-12-10T08:16:12;98785.53;;;9.22;14.46
49943;BME280;36011;53.362;58.948;2022-12-10T08:19:16;98790.13;;;9.75;14.48
49943;BME280;36011;53.362;58.948;2022-12-10T08:22:17;98784.22;;;10.50;14.04
49943;BME280;36011;53.362;58.948;2022-12-10T08:25:19;98775.91;;;10.09;13.72
49943;BME280;36011;53.362;58.948;2022-12-10T08:28:20;98770.75;;;9.20;14.57
49943;BME280;36011;53.362;58.948;2022-12-10T08:31:27;98765.84;;;9.08;15.03
49943;BME280;36011;53.362;58.948;2022-12-10T08:34:33;98780.25;;;9.54;14.72
49943;BME280;36011;53.362;58.948;2022-12-10T08:37:41;98772.63;;;10.55;14.07
49943;BME280;36011;53.362;58.948;2022-12-10T08:40:42;98763.91;;;10.28;14.26
49943;BME280;36011;53.362;58.948;2022-12-10T08:43:51;98760.19;;;9.79;14.36
49943;BME280;36011;53.362;58.948;2022-12-10T08:46:55;98760.41;;;10.28;14.03
49943;BME280;36011;53.362;58.948;2022-12-10T08:49:59;98756.19;;;10.99;13.48
49943;BME280;36011;53.362;58.948;2022-12-10T08:53:05;98747.78;;;11.13;13.17
49943;BME280;36011;53.362;58.948;2022-12-10T08:56:09;98756.75;;;11.76;13.15
49943;BME280;36011;53.362;58.948;2022-12-10T08:59:14;98757.84;;;11.71;13.24
49943;BME280;36011;53.362;58.948;2022-12-10T09:02:20;98753.97;;;11.57;13.24
49943;BME280;36011;53.362;58.948;2022-12-10T09:05:23;98744.72;;;11.47;13.61
49943;BME280;36011;53.362;58.948;2022-12-10T09:08:29;98750.75;;;12.17;13.43
49943;BME280;36011;53.362;58.948;2022-12-10T09:11:33;98758.25;;;12.05;13.24
49943;BME280;36011;53.362;58.948;2022-12-10T09:14:36;98748.50;;;11.85;13.07
49943;BME280;36011;53.362;58.948;2022-12-10T09:17:41;98745.28;;;11.08;13.58
49943;BME280;36011;53.362;58.948;2022-12-10T09:20:43;98754.44;;;9.95;13.88
49943;BME280;36011;53.362;58.948;2022-12-10T09:23:50;98745.56;;;8.50;14.65
49943;BME280;36011;53.362;58.948;2022-12-10T09:26:52;98752.69;;;7.72;15.48
49943;BME280;36011;53.362;58.948;2022-12-10T09:29:56;98742.72;;;7.88;15.39
49943;BME280;36011;53.362;58.948;2022-12-10T09:32:58;98754.22;;;7.45;15.47
49943;BME280;36011;53.362;58.948;2022-12-10T09:35:59;98748.31;;;6.48;16.08
49943;BME280;36011;53.362;58.948;2022-12-10T09:39:03;98753.75;;;6.36;16.45
49943;BME280;36011;53.362;58.948;2022-12-10T09:42:15;98743.63;;;6.66;16.15
49943;BME280;36011;53.362;58.948;2022-12-10T09:45:43;98748.97;;;7.45;15.56
49943;BME280;36011;53.362;58.948;2022-12-10T09:52:37;98749.31;;;8.73;14.47
49943;BME280;36011;53.362;58.948;2022-12-10T09:55:45;98739.38;;;7.05;15.13
49943;BME280;36011;53.362;58.948;2022-12-10T09:58:51;98729.88;;;5.51;16.01
49943;BME280;36011;53.362;58.948;2022-12-10T10:02:09;98735.28;;;3.81;17.17
49943;BME280;36011;53.362;58.948;2022-12-10T10:05:20;98736.00;;;1.14;19.39
49943;BME280;36011;53.362;58.948;2022-12-10T10:08:31;98727.06;;;-1.51;21.65
49943;BME280;36011;53.362;58.948;2022-12-10T10:11:36;98717.81;;;-3.46;23.78
49943;BME280;36011;53.362;58.948;2022-12-10T10:14:44;98714.97;;;-4.37;24.98
49943;BME280;36011;53.362;58.948;2022-12-10T10:17:46;98707.44;;;-4.66;25.74
49943;BME280;36011;53.362;58.948;2022-12-10T10:20:50;98716.19;;;-5.24;26.32
49943;BME280;36011;53.362;58.948;2022-12-10T10:23:58;98712.03;;;-5.51;27.40
49943;BME280;36011;53.362;58.948;2022-12-10T10:27:15;98724.44;;;-5.66;27.89
49943;BME280;36011;53.362;58.948;2022-12-10T10:30:24;98726.72;;;-5.75;27.51
49943;BME280;36011;53.362;58.948;2022-12-10T10:33:26;98718.13;;;-5.77;28.32
49943;BME280;36011;53.362;58.948;2022-12-10T10:36:35;98718.47;;;-5.95;28.44
49943;BME280;36011;53.362;58.948;2022-12-10T10:39:41;98715.66;;;-6.03;28.70
49943;BME280;36011;53.362;58.948;2022-12-10T10:42:52;98717.50;;;-6.27;29.45
49943;BME280;36011;53.362;58.948;2022-12-10T10:46:01;98716.88;;;-6.47;29.93
49943;BME280;36011;53.362;58.948;2022-12-10T10:52:36;98733.84;;;-6.77;31.04
49943;BME280;36011;53.362;58.948;2022-12-10T10:55:40;98735.06;;;-6.91;31.22
49943;BME280;36011;53.362;58.948;2022-12-10T11:05:27;98732.81;;;-7.07;32.22
49943;BME280;36011;53.362;58.948;2022-12-10T11:08:30;98745.78;;;-7.27;31.94
49943;BME280;36011;53.362;58.948;2022-12-10T11:11:35;98745.88;;;-7.48;32.35
49943;BME280;36011;53.362;58.948;2022-12-10T11:14:43;98730.53;;;-7.24;32.39
49943;BME280;36011;53.362;58.948;2022-12-10T11:17:54;98746.41;;;-7.56;33.43
49943;BME280;36011;53.362;58.948;2022-12-10T11:21:06;98746.69;;;-7.95;33.53
49943;BME280;36011;53.362;58.948;2022-12-10T11:24:12;98745.50;;;-8.26;34.09
49943;BME280;36011;53.362;58.948;2022-12-10T11:30:47;98731.97;;;-8.67;34.49
49943;BME280;36011;53.362;58.948;2022-12-10T11:43:44;98746.84;;;-9.39;35.84
49943;BME280;36011;53.362;58.948;2022-12-10T11:50:32;98748.66;;;-9.56;36.27
49943;BME280;36011;53.362;58.948;2022-12-10T12:01:04;98761.88;;;-10.73;38.23
49943;BME280;36011;53.362;58.948;2022-12-10T12:07:22;98765.97;;;-11.27;38.72
49943;BME280;36011;53.362;58.948;2022-12-10T12:10:56;98749.84;;;-11.61;38.49
49943;BME280;36011;53.362;58.948;2022-12-10T12:14:28;98769.63;;;-11.39;39.78
49943;BME280;36011;53.362;58.948;2022-12-10T12:17:42;98764.47;;;-11.40;39.97
49943;BME280;36011;53.362;58.948;2022-12-10T12:20:57;98749.69;;;-11.47;40.50
49943;BME280;36011;53.362;58.948;2022-12-10T12:24:16;98766.88;;;-11.43;40.86
49943;BME280;36011;53.362;58.948;2022-12-10T12:30:41;98760.56;;;-11.66;40.92
49943;BME280;36011;53.362;58.948;2022-12-10T12:36:53;98751.16;;;-11.85;41.49
49943;BME280;36011;53.362;58.948;2022-12-10T12:40:17;98760.56;;;-11.66;41.43
49943;BME280;36011;53.362;58.948;2022-12-10T12:43:28;98761.47;;;-11.66;41.34
49943;BME280;36011;53.362;58.948;2022-12-10T12:46:47;98753.03;;;-11.81;41.64
49943;BME280;36011;53.362;58.948;2022-12-10T12:49:55;98758.03;;;-11.83;41.44
49943;BME280;36011;53.362;58.948;2022-12-10T12:53:09;98752.84;;;-11.86;41.27
49943;BME280;36011;53.362;58.948;2022-12-10T13:00:18;98761.34;;;-11.84;41.38
49943;BME280;36011;53.362;58.948;2022-12-10T13:06:37;98774.78;;;-12.03;41.90
49943;BME280;36011;53.362;58.948;2022-12-10T13:09:49;98772.09;;;-12.21;42.55
49943;BME280;36011;53.362;58.948;2022-12-10T13:13:22;98760.56;;;-12.61;42.87
49943;BME280;36011;53.362;58.948;2022-12-10T13:19:49;98754.28;;;-12.98;43.26
49943;BME280;36011;53.362;58.948;2022-12-10T13:25:57;98759.69;;;-13.06;42.59
49943;BME280;36011;53.362;58.948;2022-12-10T13:35:30;98765.13;;;-13.30;43.15
49943;BME280;36011;53.362;58.948;2022-12-10T13:38:41;98767.91;;;-13.40;43.29
49943;BME280;36011;53.362;58.948;2022-12-10T13:42:27;98756.03;;;-13.41;43.93
49943;BME280;36011;53.362;58.948;2022-12-10T13:45:47;98752.16;;;-13.49;42.99
49943;BME280;36011;53.362;58.948;2022-12-10T13:48:53;98753.44;;;-13.56;43.48
49943;BME280;36011;53.362;58.948;2022-12-10T13:52:02;98746.94;;;-13.52;43.40
49943;BME280;36011;53.362;58.948;2022-12-10T14:09:21;98734.31;;;-12.77;44.06
49943;BME280;36011;53.362;58.948;2022-12-10T14:12:35;98726.81;;;-13.05;44.39
49943;BME280;36011;53.362;58.948;2022-12-10T14:15:38;98725.28;;;-13.18;44.37
49943;BME280;36011;53.362;58.948;2022-12-10T14:19:15;98680.81;;;-13.42;44.46
49943;BME280;36011;53.362;58.948;2022-12-10T14:22:46;98733.03;;;-13.00;44.36
49943;BME280;36011;53.362;58.948;2022-12-10T14:25:50;98725.25;;;-13.03;43.79
49943;BME280;36011;53.362;58.948;2022-12-10T14:29:21;98740.28;;;-12.91;44.02
49943;BME280;36011;53.362;58.948;2022-12-10T14:32:31;98746.50;;;-12.86;44.02
49943;BME280;36011;53.362;58.948;2022-12-10T14:35:34;98740.28;;;-13.06;43.89
49943;BME280;36011;53.362;58.948;2022-12-10T14:38:38;98746.56;;;-13.14;44.10
49943;BME280;36011;53.362;58.948;2022-12-10T14:41:41;98746.44;;;-13.32;44.32
49943;BME280;36011;53.362;58.948;2022-12-10T14:44:50;98741.78;;;-13.39;44.46
49943;BME280;36011;53.362;58.948;2022-12-10T14:47:55;98743.94;;;-13.45;44.52
49943;BME280;36011;53.362;58.948;2022-12-10T14:51:15;98744.78;;;-13.60;44.53
49943;BME280;36011;53.362;58.948;2022-12-10T14:54:35;98735.69;;;-13.71;44.97
49943;BME280;36011;53.362;58.948;2022-12-10T14:57:44;98743.75;;;-13.63;44.71
49943;BME280;36011;53.362;58.948;2022-12-10T15:00:53;98749.28;;;-13.84;45.02
49943;BME280;36011;53.362;58.948;2022-12-10T15:03:59;98740.78;;;-13.84;44.82
49943;BME280;36011;53.362;58.948;2022-12-10T15:07:01;98740.28;;;-14.07;45.43
49943;BME280;36011;53.362;58.948;2022-12-10T15:10:17;98750.25;;;-14.23;45.46
49943;BME280;36011;53.362;58.948;2022-12-10T15:13:24;98752.41;;;-14.29;45.74
49943;BME280;36011;53.362;58.948;2022-12-10T15:22:32;98742.53;;;-14.53;45.80
49943;BME280;36011;53.362;58.948;2022-12-10T15:25:44;98748.38;;;-14.54;46.17
49943;BME280;36011;53.362;58.948;2022-12-10T15:28:48;98736.72;;;-14.65;46.07
49943;BME280;36011;53.362;58.948;2022-12-10T15:31:58;98731.66;;;-14.65;45.98
49943;BME280;36011;53.362;58.948;2022-12-10T15:35:04;98732.41;;;-14.53;46.02
49943;BME280;36011;53.362;58.948;2022-12-10T15:38:13;98740.47;;;-14.45;45.75
49943;BME280;36011;53.362;58.948;2022-12-10T15:41:41;98735.91;;;-14.51;46.17
49943;BME280;36011;53.362;58.948;2022-12-10T15:44:56;98740.09;;;-14.51;45.83
49943;BME280;36011;53.362;58.948;2022-12-10T15:48:07;98746.56;;;-14.41;45.63
49943;BME280;36011;53.362;58.948;2022-12-10T15:51:09;98742.84;;;-14.20;45.62
49943;BME280;36011;53.362;58.948;2022-12-10T15:54:19;98746.53;;;-13.59;44.92
49943;BME280;36011;53.362;58.948;2022-12-10T15:57:38;98748.13;;;-13.61;44.93
49943;BME280;36011;53.362;58.948;2022-12-10T16:00:50;98727.34;;;-13.70;44.68
49943;BME280;36011;53.362;58.948;2022-12-10T16:03:57;98727.25;;;-13.57;45.10
49943;BME280;36011;53.362;58.948;2022-12-10T16:07:04;98729.97;;;-13.53;45.13
49943;BME280;36011;53.362;58.948;2022-12-10T16:10:12;98723.66;;;-13.75;45.25
49943;BME280;36011;53.362;58.948;2022-12-10T16:13:23;98727.97;;;-13.87;45.26
49943;BME280;36011;53.362;58.948;2022-12-10T16:16:28;98715.25;;;-13.74;45.51
49943;BME280;36011;53.362;58.948;2022-12-10T16:19:36;98728.16;;;-13.84;45.60
49943;BME280;36011;53.362;58.948;2022-12-10T16:22:41;98720.97;;;-13.91;45.68
49943;BME280;36011;53.362;58.948;2022-12-10T16:25:45;98719.66;;;-13.99;46.12
49943;BME280;36011;53.362;58.948;2022-12-10T16:28:51;98724.31;;;-13.92;45.53
49943;BME280;36011;53.362;58.948;2022-12-10T16:31:57;98723.72;;;-14.02;45.42
49943;BME280;36011;53.362;58.948;2022-12-10T16:35:03;98733.03;;;-13.87;45.61
49943;BME280;36011;53.362;58.948;2022-12-10T16:38:05;98724.16;;;-14.09;45.71
49943;BME280;36011;53.362;58.948;2022-12-10T16:41:17;98726.69;;;-14.09;46.17
49943;BME280;36011;53.362;58.948;2022-12-10T16:44:25;98726.69;;;-14.09;45.91
49943;BME280;36011;53.362;58.948;2022-12-10T16:47:26;98720.31;;;-14.30;45.78
49943;BME280;36011;53.362;58.948;2022-12-10T16:50:37;98720.72;;;-14.51;46.38
49943;BME280;36011;53.362;58.948;2022-12-10T16:53:43;98715.53;;;-14.54;46.49
49943;BME280;36011;53.362;58.948;2022-12-10T16:56:47;98721.38;;;-14.68;46.32
49943;BME280;36011;53.362;58.948;2022-12-10T16:59:48;98713.78;;;-14.81;46.87
49943;BME280;36011;53.362;58.948;2022-12-10T17:02:52;98718.06;;;-14.94;46.43
49943;BME280;36011;53.362;58.948;2022-12-10T17:05:56;98714.75;;;-14.93;46.81
49943;BME280;36011;53.362;58.948;2022-12-10T17:09:00;98712.31;;;-14.64;46.80
49943;BME280;36011;53.362;58.948;2022-12-10T17:12:02;98700.84;;;-14.59;46.61
49943;BME280;36011;53.362;58.948;2022-12-10T17:15:11;98711.69;;;-14.47;46.84
49943;BME280;36011;53.362;58.948;2022-12-10T17:18:17;98707.47;;;-14.33;46.69
49943;BME280;36011;53.362;58.948;2022-12-10T17:21:21;98709.03;;;-14.35;46.95
49943;BME280;36011;53.362;58.948;2022-12-10T17:24:26;98691.72;;;-14.29;46.59
49943;BME280;36011;53.362;58.948;2022-12-10T17:27:27;98701.91;;;-14.14;46.27
49943;BME280;36011;53.362;58.948;2022-12-10T17:30:31;98702.41;;;-14.20;46.27
49943;BME280;36011;53.362;58.948;2022-12-10T17:33:32;98699.59;;;-14.38;46.53
49943;BME280;36011;53.362;58.948;2022-12-10T17:36:36;98696.97;;;-14.26;46.09
49943;BME280;36011;53.362;58.948;2022-12-10T17:39:44;98698.03;;;-14.22;46.11
49943;BME280;36011;53.362;58.948;2022-12-10T17:42:45;98703.56;;;-14.28;46.16
49943;BME280;36011;53.362;58.948;2022-12-10T17:45:52;98694.81;;;-14.20;46.21
49943;BME280;36011;53.362;58.948;2022-12-10T17:48:56;98704.75;;;-14.36;46.29
49943;BME280;36011;53.362;58.948;2022-12-10T17:52:00;98701.38;;;-14.50;46.46
49943;BME280;36011;53.362;58.948;2022-12-10T17:55:04;98695.81;;;-14.44;46.08
49943;BME280;36011;53.362;58.948;2022-12-10T17:58:11;98698.47;;;-14.43;46.38
49943;BME280;36011;53.362;58.948;2022-12-10T18:01:16;98698.63;;;-14.68;46.35